Time;durP1;ratioP1;P1;durP2;ratioP2;P2;SDS_P1;SDS_P2;PMS_P1;PMS_P2;Temp;Humidity;BMP_temperature;BMP_pressure;BME280_temperature;BME280_humidity;BME280_pressure;Samples;Min_cycle;Max_cycle;Signal;HPM_P1;HPM_P2
2022/10/10 00:01:19;;;;;;;2.33;1.10;;;12.90;85.50;;;;;;5033831;28;20495;-74
2022/10/10 00:03:46;;;;;;;1.70;1.00;;;12.90;91.80;;;;;;5036412;28;20456;-74
2022/10/10 00:06:15;;;;;;;2.63;1.13;;;13.00;75.60;;;;;;5033335;28;20939;-74
2022/10/10 00:08:42;;;;;;;2.20;1.30;;;12.90;79.60;;;;;;5036368;28;20814;-73
2022/10/10 00:11:10;;;;;;;3.43;1.00;;;12.90;84.70;;;;;;5033327;28;20464;-73
2022/10/10 00:13:38;;;;;;;2.17;1.50;;;13.00;79.00;;;;;;5036508;28;20476;-74
2022/10/10 00:16:05;;;;;;;3.70;1.30;;;13.00;77.90;;;;;;5033790;28;20456;-74
2022/10/10 00:18:33;;;;;;;2.30;1.10;;;13.00;86.00;;;;;;5037089;28;20498;-73
2022/10/10 00:21:00;;;;;;;1.97;1.33;;;12.90;84.40;;;;;;5036169;28;20452;-74
2022/10/10 00:23:29;;;;;;;1.47;1.20;;;12.90;92.60;;;;;;5036574;28;20448;-74
2022/10/10 00:25:56;;;;;;;1.37;0.90;;;12.90;95.30;;;;;;5033771;28;20452;-74
2022/10/10 00:28:23;;;;;;;1.97;1.40;;;12.90;89.30;;;;;;5036127;28;20896;-74
2022/10/10 00:30:50;;;;;;;4.20;1.20;;;13.00;90.50;;;;;;5036851;28;20452;-74
2022/10/10 00:33:18;;;;;;;2.60;1.07;;;13.00;92.20;;;;;;5036430;28;20863;-73
2022/10/10 00:35:45;;;;;;;1.90;1.10;;;12.90;90.20;;;;;;5035035;28;20502;-73
2022/10/10 00:38:13;;;;;;;1.50;1.10;;;12.90;94.40;;;;;;5036480;28;20452;-74
2022/10/10 00:40:48;;;;;;;3.13;1.20;;;12.90;98.50;;;;;;5034105;28;20454;-73
2022/10/10 00:43:15;;;;;;;2.40;1.10;;;12.90;98.20;;;;;;5035952;28;20452;-74
2022/10/10 00:45:44;;;;;;;3.50;1.40;;;13.00;98.60;;;;;;5033476;28;20448;-73
2022/10/10 00:48:14;;;;;;;2.33;1.20;;;12.90;99.90;;;;;;5036695;28;20484;-74
2022/10/10 00:50:44;;;;;;;2.70;1.20;;;12.90;99.90;;;;;;5033849;28;20783;-74
2022/10/10 00:53:15;;;;;;;1.40;1.20;;;12.90;99.90;;;;;;5039970;28;20460;-73
2022/10/10 00:55:42;;;;;;;2.10;1.30;;;13.00;99.90;;;;;;5037849;28;20719;-73
2022/10/10 00:58:12;;;;;;;2.07;1.47;;;13.00;99.50;;;;;;5039163;28;20432;-73
2022/10/10 01:00:39;;;;;;;2.50;1.20;;;13.00;94.30;;;;;;5037842;28;20456;-74
2022/10/10 01:03:06;;;;;;;2.23;1.33;;;13.10;92.50;;;;;;5039645;28;20872;-74
2022/10/10 01:05:33;;;;;;;3.23;1.20;;;13.10;89.80;;;;;;5039889;28;20475;-73
2022/10/10 01:08:02;;;;;;;1.80;1.13;;;13.20;81.10;;;;;;5037000;28;20545;-74
2022/10/10 01:10:29;;;;;;;2.07;1.33;;;13.20;77.30;;;;;;5039742;28;20455;-74
2022/10/10 01:13:07;;;;;;;2.13;1.17;;;13.20;82.10;;;;;;5036764;28;20488;-74
2022/10/10 01:15:44;;;;;;;2.03;1.27;;;13.00;90.90;;;;;;5039650;28;20445;-74
2022/10/10 01:18:18;;;;;;;1.43;1.13;;;13.00;95.20;;;;;;5039414;28;20509;-74
2022/10/10 01:21:11;;;;;;;2.53;1.17;;;13.10;94.60;;;;;;5035965;28;20459;-74
2022/10/10 01:24:29;;;;;;;1.50;1.00;;;13.10;91.00;;;;;;5039360;28;20510;-74
2022/10/10 01:27:25;;;;;;;1.67;1.30;;;13.20;81.70;;;;;;5035968;28;20507;-74
2022/10/10 01:29:56;;;;;;;1.80;1.13;;;13.20;81.00;;;;;;5035906;28;20461;-74
2022/10/10 01:32:29;;;;;;;1.87;1.30;;;13.10;89.00;;;;;;5039077;28;20518;-74
2022/10/10 01:35:06;;;;;;;1.63;1.40;;;13.10;87.30;;;;;;5039313;28;20518;-73
2022/10/10 01:37:40;;;;;;;3.60;1.40;;;13.20;89.30;;;;;;5036826;28;20455;-74
2022/10/10 01:40:13;;;;;;;1.80;1.20;;;13.20;88.30;;;;;;5038634;28;20910;-74
2022/10/10 01:42:48;;;;;;;2.03;1.40;;;13.20;82.90;;;;;;5035993;28;20464;-74
2022/10/10 01:45:16;;;;;;;1.57;1.00;;;13.30;75.30;;;;;;5039089;28;20448;-73
2022/10/10 01:47:43;;;;;;;6.07;1.73;;;13.30;76.80;;;;;;5035883;28;20545;-74
2022/10/10 01:50:14;;;;;;;1.47;1.03;;;13.40;65.00;;;;;;5038811;28;20821;-74
2022/10/10 01:52:53;;;;;;;2.00;1.00;;;13.40;58.10;;;;;;5035740;28;21364;-74
2022/10/10 01:55:33;;;;;;;2.50;1.00;;;13.40;62.30;;;;;;5038707;28;20506;-74
2022/10/10 01:58:15;;;;;;;1.37;1.03;;;13.40;58.00;;;;;;5037513;28;20452;-74
2022/10/10 02:00:48;;;;;;;2.07;1.50;;;13.50;55.30;;;;;;5036842;28;20937;-74
2022/10/10 02:03:20;;;;;;;2.27;1.00;;;13.40;56.90;;;;;;5038570;28;20503;-74
2022/10/10 02:05:53;;;;;;;1.50;1.10;;;13.40;58.80;;;;;;5035122;28;20448;-74
2022/10/10 02:08:26;;;;;;;2.23;1.00;;;13.40;59.10;;;;;;5037998;28;20480;-74
2022/10/10 02:10:56;;;;;;;1.70;1.10;;;13.50;53.90;;;;;;5034861;28;20448;-73
2022/10/10 02:13:28;;;;;;;1.63;1.07;;;13.50;51.30;;;;;;5038248;28;20484;-74
2022/10/10 02:15:59;;;;;;;1.43;1.07;;;13.50;48.70;;;;;;5035306;28;20465;-74
2022/10/10 02:18:31;;;;;;;1.93;1.00;;;13.50;50.00;;;;;;5038198;28;20737;-74
2022/10/10 02:21:00;;;;;;;1.50;0.93;;;13.50;54.40;;;;;;5034785;28;20500;-74
2022/10/10 02:23:28;;;;;;;2.20;1.23;;;13.50;54.80;;;;;;5037958;28;20471;-74
2022/10/10 02:25:56;;;;;;;1.50;1.40;;;13.60;53.00;;;;;;5034039;28;20436;-74
2022/10/10 02:28:28;;;;;;;2.83;1.00;;;13.60;45.60;;;;;;5037898;28;20484;-74
2022/10/10 02:31:00;;;;;;;1.53;1.13;;;13.60;45.40;;;;;;5035441;28;20811;-74
2022/10/10 02:33:31;;;;;;;6.50;1.13;;;13.50;50.60;;;;;;5037582;28;20506;-74
2022/10/10 02:36:00;;;;;;;2.00;1.17;;;13.40;66.90;;;;;;5035185;28;20460;-74
2022/10/10 02:38:29;;;;;;;3.10;1.17;;;13.40;62.10;;;;;;5037324;28;20451;-74
2022/10/10 02:41:02;;;;;;;1.40;0.90;;;13.30;64.00;;;;;;5035293;28;20510;-73
2022/10/10 02:43:31;;;;;;;2.00;0.90;;;13.20;73.90;;;;;;5037150;28;20461;-74
2022/10/10 02:46:02;;;;;;;3.87;1.20;;;13.20;80.80;;;;;;5034774;28;20543;-74
2022/10/10 02:48:29;;;;;;;1.30;1.00;;;13.10;81.80;;;;;;5037488;28;20583;-74
2022/10/10 02:50:57;;;;;;;1.50;1.10;;;12.90;95.60;;;;;;5034797;28;20759;-74
2022/10/10 02:53:23;;;;;;;3.00;1.10;;;12.90;99.90;;;;;;5037485;28;20559;-73
2022/10/10 02:55:51;;;;;;;4.13;1.10;;;12.90;99.90;;;;;;5035036;28;20507;-74
2022/10/10 02:58:18;;;;;;;2.20;1.20;;;12.90;99.90;;;;;;5037701;28;20445;-74
2022/10/10 03:00:45;;;;;;;2.20;1.10;;;12.90;99.80;;;;;;5034655;28;20831;-74
2022/10/10 03:03:13;;;;;;;1.70;1.03;;;12.80;99.90;;;;;;5036565;28;20452;-74
2022/10/10 03:05:40;;;;;;;1.93;1.10;;;12.80;99.90;;;;;;5034649;28;20448;-74
2022/10/10 03:08:07;;;;;;;1.47;1.00;;;12.70;99.90;;;;;;5037463;28;20506;-74
2022/10/10 03:10:34;;;;;;;2.57;1.40;;;12.80;99.90;;;;;;5037525;28;20445;-74
2022/10/10 03:13:01;;;;;;;1.90;1.00;;;12.80;99.90;;;;;;5034511;28;20542;-74
2022/10/10 03:15:28;;;;;;;1.63;1.10;;;12.90;99.90;;;;;;5036226;28;20903;-74
2022/10/10 03:17:55;;;;;;;2.13;1.00;;;12.90;99.90;;;;;;5034012;28;20448;-71
2022/10/10 03:20:23;;;;;;;1.93;1.00;;;12.90;99.90;;;;;;5036229;28;20958;-72
2022/10/10 03:22:50;;;;;;;1.77;1.03;;;12.90;99.90;;;;;;5033614;28;20456;-73
2022/10/10 03:25:17;;;;;;;3.40;1.00;;;12.90;99.90;;;;;;5036508;28;20962;-71
2022/10/10 03:27:44;;;;;;;2.27;1.07;;;12.90;99.90;;;;;;5033411;28;20496;-71
2022/10/10 03:30:12;;;;;;;1.50;1.10;;;12.90;99.90;;;;;;5035986;28;20452;-72
2022/10/10 03:32:39;;;;;;;2.03;1.20;;;12.90;99.90;;;;;;5033142;28;20456;-71
2022/10/10 03:35:06;;;;;;;2.10;0.97;;;13.00;99.90;;;;;;5036720;28;20449;-72
2022/10/10 03:37:35;;;;;;;1.80;1.00;;;13.00;99.90;;;;;;5034537;28;20455;-71
2022/10/10 03:40:02;;;;;;;1.93;0.90;;;13.10;99.90;;;;;;5036632;28;20515;-72
2022/10/10 03:42:29;;;;;;;2.10;0.90;;;13.00;99.90;;;;;;5034749;28;20463;-71
2022/10/10 03:44:56;;;;;;;1.40;1.00;;;13.00;99.90;;;;;;5036893;28;20506;-72
2022/10/10 03:47:23;;;;;;;3.03;1.20;;;13.10;99.90;;;;;;5033942;28;20545;-72
2022/10/10 03:49:50;;;;;;;2.33;1.10;;;13.00;99.90;;;;;;5036239;28;20510;-71
2022/10/10 03:52:16;;;;;;;1.40;0.80;;;13.00;99.90;;;;;;5033785;28;20456;-71
2022/10/10 03:54:45;;;;;;;1.40;0.97;;;13.00;99.90;;;;;;5036050;28;20506;-71
2022/10/10 03:57:12;;;;;;;2.27;1.00;;;13.00;99.90;;;;;;5034192;28;20510;-71
2022/10/10 03:59:39;;;;;;;1.60;1.03;;;12.90;99.90;;;;;;5035713;28;20518;-72
2022/10/10 04:02:06;;;;;;;1.40;1.00;;;12.90;99.90;;;;;;5033463;28;20460;-72
2022/10/10 04:04:33;;;;;;;1.50;1.13;;;13.00;99.90;;;;;;5036206;28;20755;-71
2022/10/10 04:06:59;;;;;;;2.67;1.10;;;13.00;99.90;;;;;;5032332;28;20452;-72
2022/10/10 04:09:26;;;;;;;1.47;0.93;;;13.00;99.90;;;;;;5034917;28;20485;-71
2022/10/10 04:11:55;;;;;;;1.17;0.90;;;12.90;99.90;;;;;;5032725;28;20456;-71
2022/10/10 04:14:22;;;;;;;2.63;1.17;;;12.90;99.90;;;;;;5034713;28;20482;-73
2022/10/10 04:16:49;;;;;;;3.20;1.20;;;12.90;99.90;;;;;;5031375;28;20830;-72
2022/10/10 04:19:16;;;;;;;1.53;1.10;;;12.80;99.90;;;;;;5034934;28;20506;-71
2022/10/10 04:21:43;;;;;;;1.60;1.10;;;12.90;99.90;;;;;;5032770;28;20506;-71
2022/10/10 04:24:10;;;;;;;2.27;0.90;;;12.90;99.90;;;;;;5036054;28;20452;-71
2022/10/10 04:26:37;;;;;;;1.77;1.20;;;12.90;99.90;;;;;;5036277;28;20511;-71
2022/10/10 04:29:06;;;;;;;3.83;1.20;;;12.80;99.90;;;;;;5040220;28;20515;-72
2022/10/10 04:31:33;;;;;;;1.63;1.20;;;12.80;99.90;;;;;;5035848;28;20452;-72
2022/10/10 04:34:00;;;;;;;3.03;1.00;;;12.90;99.90;;;;;;5039109;28;20440;-71
2022/10/10 04:36:26;;;;;;;1.63;1.00;;;12.90;99.90;;;;;;5036984;28;20456;-71
2022/10/10 04:38:53;;;;;;;1.77;1.20;;;12.90;99.90;;;;;;5039391;28;20946;-72
2022/10/10 04:41:20;;;;;;;3.10;1.30;;;13.00;99.90;;;;;;5036843;28;20503;-72
2022/10/10 04:43:47;;;;;;;2.63;1.13;;;12.90;99.90;;;;;;5039327;28;20441;-71
2022/10/10 04:46:18;;;;;;;2.50;1.20;;;12.90;99.90;;;;;;5036724;28;20888;-71
2022/10/10 04:48:45;;;;;;;2.90;1.27;;;12.80;99.90;;;;;;5039218;28;20487;-72
2022/10/10 04:51:12;;;;;;;2.87;1.20;;;12.90;99.90;;;;;;5036951;28;20864;-72
2022/10/10 04:53:39;;;;;;;2.40;1.20;;;13.00;99.90;;;;;;5039781;28;20482;-71
2022/10/10 04:56:06;;;;;;;2.60;1.20;;;12.90;99.90;;;;;;5035237;28;20445;-72
2022/10/10 04:58:33;;;;;;;2.20;1.30;;;12.90;99.90;;;;;;5038569;28;20467;-72
2022/10/10 05:01:01;;;;;;;5.13;1.60;;;12.90;99.90;;;;;;5035120;28;20456;-71
2022/10/10 05:03:32;;;;;;;2.20;1.63;;;12.90;99.90;;;;;;5037801;28;20455;-71
2022/10/10 05:05:59;;;;;;;2.10;1.27;;;12.90;99.90;;;;;;5037288;28;20526;-72
2022/10/10 05:08:25;;;;;;;2.30;1.23;;;12.90;99.90;;;;;;5038394;28;20502;-71
2022/10/10 05:10:53;;;;;;;3.27;1.30;;;12.80;99.90;;;;;;5035242;28;20498;-72
2022/10/10 05:13:20;;;;;;;2.13;0.93;;;12.90;99.90;;;;;;5037040;28;20472;-71
2022/10/10 05:15:51;;;;;;;2.97;1.10;;;12.90;99.90;;;;;;5038172;28;20807;-71
2022/10/10 05:18:18;;;;;;;1.63;1.13;;;13.10;99.90;;;;;;5038911;28;20531;-71
2022/10/10 05:20:47;;;;;;;1.40;1.00;;;13.10;99.90;;;;;;5037634;28;20448;-71
2022/10/10 05:23:14;;;;;;;1.70;1.30;;;13.10;99.90;;;;;;5037723;28;20865;-71
2022/10/10 05:25:43;;;;;;;2.53;1.23;;;13.20;99.90;;;;;;5033955;28;20572;-71
2022/10/10 05:28:11;;;;;;;1.50;1.13;;;13.10;99.90;;;;;;5038250;28;20480;-71
2022/10/10 05:30:38;;;;;;;1.80;1.00;;;13.00;99.90;;;;;;5035894;28;20884;-74
2022/10/10 05:33:05;;;;;;;2.87;1.13;;;13.00;99.90;;;;;;5037201;28;20503;-71
2022/10/10 05:35:32;;;;;;;1.57;1.00;;;13.10;99.90;;;;;;5036712;28;20502;-71
2022/10/10 05:38:00;;;;;;;1.70;0.90;;;13.10;99.90;;;;;;5033784;28;20449;-70
2022/10/10 05:40:27;;;;;;;3.83;0.90;;;13.10;99.90;;;;;;5035502;28;20502;-71
2022/10/10 05:42:54;;;;;;;1.50;0.90;;;13.00;99.90;;;;;;5032760;28;20938;-71
2022/10/10 05:45:21;;;;;;;2.10;1.00;;;13.00;99.90;;;;;;5037134;28;20471;-72
2022/10/10 05:47:48;;;;;;;1.50;0.97;;;13.00;99.90;;;;;;5033192;28;20480;-71
2022/10/10 05:50:27;;;;;;;1.43;1.10;;;13.10;99.90;;;;;;5037031;28;20448;-71
2022/10/10 05:52:54;;;;;;;2.50;1.20;;;13.10;99.90;;;;;;5036799;28;20472;-71
2022/10/10 05:55:22;;;;;;;2.60;1.40;;;13.10;99.90;;;;;;5035900;28;20456;-71
2022/10/10 05:57:49;;;;;;;2.50;1.30;;;13.00;99.90;;;;;;5033895;28;20452;-71
2022/10/10 06:00:17;;;;;;;2.13;1.80;;;13.00;99.90;;;;;;5035767;28;20504;-71
2022/10/10 06:02:43;;;;;;;2.47;1.10;;;13.00;99.90;;;;;;5034637;28;20881;-71
2022/10/10 06:05:10;;;;;;;4.03;1.30;;;13.00;99.90;;;;;;5037252;28;20452;-71
2022/10/10 06:07:37;;;;;;;3.40;1.30;;;13.10;99.90;;;;;;5035274;28;20448;-73
2022/10/10 06:10:05;;;;;;;5.10;1.60;;;13.20;99.90;;;;;;5036983;28;20452;-70
2022/10/10 06:12:34;;;;;;;2.90;1.30;;;13.20;99.90;;;;;;5036870;28;20554;-71
2022/10/10 06:15:01;;;;;;;10.57;7.30;;;13.30;99.90;;;;;;5033289;28;20772;-70
2022/10/10 06:17:28;;;;;;;4.43;2.33;;;13.30;99.90;;;;;;5035549;28;20495;-71
2022/10/10 06:19:55;;;;;;;8.20;4.40;;;13.30;99.90;;;;;;5031160;28;20456;-70
2022/10/10 06:22:22;;;;;;;2.97;1.60;;;13.30;99.90;;;;;;5033050;28;20486;-70
2022/10/10 06:24:48;;;;;;;1.30;1.20;;;13.40;99.90;;;;;;5032809;28;20456;-71
2022/10/10 06:27:15;;;;;;;1.67;1.30;;;13.40;99.90;;;;;;5035170;28;20448;-70
2022/10/10 06:29:44;;;;;;;2.90;1.30;;;13.50;99.90;;;;;;5031828;28;20569;-71
2022/10/10 06:32:11;;;;;;;3.60;1.20;;;13.50;99.90;;;;;;5034006;28;20464;-71
2022/10/10 06:34:38;;;;;;;4.90;1.57;;;13.50;99.90;;;;;;5034110;28;20745;-71
2022/10/10 06:37:07;;;;;;;3.50;1.63;;;13.60;99.90;;;;;;5035035;28;20822;-71
2022/10/10 06:39:34;;;;;;;2.97;1.27;;;13.70;95.20;;;;;;5031669;28;20469;-72
2022/10/10 06:42:01;;;;;;;1.60;1.30;;;13.60;92.20;;;;;;5033065;28;20856;-72
2022/10/10 06:44:28;;;;;;;3.07;1.47;;;13.70;94.00;;;;;;5029971;28;20809;-72
2022/10/10 06:46:56;;;;;;;4.33;1.67;;;13.70;92.70;;;;;;5033882;28;20499;-71
2022/10/10 06:49:23;;;;;;;2.00;1.10;;;13.70;95.30;;;;;;5029792;28;20484;-71
2022/10/10 06:51:50;;;;;;;6.03;1.80;;;13.80;94.20;;;;;;5029832;28;20469;-71
2022/10/10 06:54:17;;;;;;;2.17;1.60;;;13.90;78.10;;;;;;5031467;28;20475;-72
2022/10/10 06:56:44;;;;;;;5.97;2.13;;;13.90;77.00;;;;;;5033367;28;20462;-70
2022/10/10 06:59:11;;;;;;;3.43;2.13;;;14.00;79.40;;;;;;5034289;28;20467;-71
2022/10/10 07:01:39;;;;;;;5.70;1.60;;;14.10;59.70;;;;;;5034911;28;20926;-71
2022/10/10 07:04:07;;;;;;;2.00;1.63;;;14.20;59.90;;;;;;5030750;28;20511;-71
2022/10/10 07:06:34;;;;;;;2.50;1.50;;;14.20;40.00;;;;;;5035336;28;20745;-72
2022/10/10 07:09:01;;;;;;;3.53;1.63;;;14.10;36.60;;;;;;5031005;28;20559;-71
2022/10/10 07:11:28;;;;;;;5.60;1.73;;;14.00;41.30;;;;;;5035724;28;20432;-71
2022/10/10 07:13:55;;;;;;;2.37;1.30;;;13.80;52.70;;;;;;5031458;28;20981;-71
2022/10/10 07:16:23;;;;;;;2.37;1.30;;;13.70;68.90;;;;;;5035300;28;20452;-70
2022/10/10 07:18:50;;;;;;;4.27;1.40;;;13.80;73.70;;;;;;5032498;28;20456;-72
2022/10/10 07:21:21;;;;;;;2.53;1.20;;;13.90;73.90;;;;;;5036414;28;20507;-72
2022/10/10 07:23:49;;;;;;;2.53;1.20;;;13.90;67.30;;;;;;5026922;28;20456;-71
2022/10/10 07:26:20;;;;;;;4.13;1.60;;;14.00;70.80;;;;;;5031613;28;20916;-70
2022/10/10 07:28:48;;;;;;;6.47;1.60;;;13.90;81.90;;;;;;5027970;28;20479;-71
2022/10/10 07:31:16;;;;;;;2.77;1.30;;;13.90;83.80;;;;;;5028303;28;20506;-71
2022/10/10 07:33:45;;;;;;;3.73;1.70;;;13.90;84.60;;;;;;5031645;28;20488;-71
2022/10/10 07:36:13;;;;;;;3.70;1.90;;;14.00;87.70;;;;;;5035386;28;20478;-71
2022/10/10 07:38:44;;;;;;;3.67;1.53;;;14.10;82.80;;;;;;5035252;28;20444;-71
2022/10/10 07:41:13;;;;;;;2.83;1.50;;;14.20;71.50;;;;;;5020916;28;20899;-71
2022/10/10 07:43:41;;;;;;;3.00;1.73;;;14.30;71.60;;;;;;5036805;28;20460;-71
2022/10/10 07:46:15;;;;;;;2.40;1.60;;;14.30;56.60;;;;;;5035089;28;20467;-70
2022/10/10 07:48:42;;;;;;;5.90;2.00;;;14.30;52.20;;;;;;5037732;28;20483;-71
2022/10/10 07:51:10;;;;;;;3.87;1.30;;;14.30;43.40;;;;;;5034382;28;20456;-71
2022/10/10 07:53:37;;;;;;;2.40;1.40;;;14.50;43.00;;;;;;5037404;28;20480;-72
2022/10/10 07:56:08;;;;;;;1.87;1.30;;;14.60;38.20;;;;;;5032692;28;20518;-71
2022/10/10 07:58:38;;;;;;;4.50;1.93;;;14.70;24.90;;;;;;5036401;28;20507;-71
2022/10/10 08:01:07;;;;;;;2.10;1.20;;;14.80;21.90;;;;;;5034793;28;20552;-72
2022/10/10 08:03:37;;;;;;;7.80;5.50;;;14.80;17.20;;;;;;5039178;28;20476;-72
2022/10/10 08:06:07;;;;;;;2.83;1.30;;;15.00;16.20;;;;;;5033637;28;20491;-73
2022/10/10 08:08:35;;;;;;;2.73;1.50;;;15.00;12.90;;;;;;5039042;28;20503;-73
2022/10/10 08:11:06;;;;;;;3.03;1.20;;;15.00;11.00;;;;;;5034993;28;20456;-73
2022/10/10 08:13:34;;;;;;;3.83;1.30;;;15.10;19.40;;;;;;5038959;28;20927;-71
2022/10/10 08:16:04;;;;;;;1.80;1.27;;;15.20;18.40;;;;;;5032702;28;20535;-73
2022/10/10 08:18:31;;;;;;;5.37;3.23;;;15.30;23.80;;;;;;5021763;28;20456;-72
2022/10/10 08:21:00;;;;;;;1.93;1.00;;;15.50;28.50;;;;;;5034341;28;20551;-72
2022/10/10 08:23:28;;;;;;;1.47;1.00;;;15.60;37.00;;;;;;5040695;28;20444;-73
2022/10/10 08:25:59;;;;;;;2.50;0.90;;;15.70;34.80;;;;;;5026661;28;20460;-72
2022/10/10 08:28:28;;;;;;;1.50;1.10;;;15.70;36.50;;;;;;5041311;28;20444;-73
2022/10/10 08:30:56;;;;;;;3.40;0.80;;;15.70;37.30;;;;;;5035311;28;20809;-73
2022/10/10 08:33:26;;;;;;;1.20;0.80;;;15.80;33.20;;;;;;5038825;28;20486;-73
2022/10/10 08:35:53;;;;;;;0.90;0.70;;;15.80;34.60;;;;;;5037199;28;20510;-74
2022/10/10 08:38:20;;;;;;;1.10;0.70;;;15.90;33.70;;;;;;5040359;28;20767;-73
2022/10/10 08:40:50;;;;;;;2.00;0.90;;;15.90;31.00;;;;;;5034860;28;20559;-73
2022/10/10 08:43:23;;;;;;;0.93;0.70;;;16.10;25.70;;;;;;5041367;28;20448;-73
2022/10/10 08:45:58;;;;;;;1.10;0.70;;;16.20;19.40;;;;;;5029286;28;20462;-73
2022/10/10 08:48:29;;;;;;;1.30;0.90;;;16.30;14.70;;;;;;5030684;28;20462;-72
2022/10/10 08:51:04;;;;;;;0.93;0.70;;;16.30;13.70;;;;;;5037174;28;20511;-73
2022/10/10 08:53:36;;;;;;;1.20;0.80;;;16.50;12.50;;;;;;5037744;28;20929;-72
2022/10/10 08:56:06;;;;;;;0.80;0.60;;;16.50;7.40;;;;;;5033959;28;20543;-73
2022/10/10 08:58:37;;;;;;;0.90;0.67;;;16.80;1.00;;;;;;5037809;28;20517;-71
2022/10/10 09:01:12;;;;;;;1.53;0.73;;;16.90;1.00;;;;;;5033036;28;20510;-72
2022/10/10 09:03:43;;;;;;;1.30;0.80;;;17.00;1.00;;;;;;5036999;28;20515;-71
2022/10/10 09:06:29;;;;;;;1.00;0.60;;;17.10;1.00;;;;;;5033667;28;20466;-71
2022/10/10 09:09:07;;;;;;;3.03;0.70;;;17.40;1.00;;;;;;5035489;28;20569;-72
2022/10/10 09:11:50;;;;;;;0.90;0.67;;;17.50;1.00;;;;;;5032441;28;20459;-72
2022/10/10 09:14:32;;;;;;;1.57;0.63;;;17.60;1.00;;;;;;5036184;28;20541;-70
2022/10/10 09:17:08;;;;;;;2.77;0.60;;;17.70;1.00;;;;;;5032389;28;20467;-70
2022/10/10 09:19:48;;;;;;;1.00;0.77;;;17.80;1.00;;;;;;5037537;28;20500;-71
2022/10/10 09:22:18;;;;;;;0.80;0.60;;;18.00;1.00;;;;;;5036375;28;20498;-72
2022/10/10 09:24:50;;;;;;;1.03;0.70;;;18.10;1.00;;;;;;5033316;28;20824;-71
2022/10/10 09:27:24;;;;;;;0.90;0.70;;;18.10;1.00;;;;;;5035420;28;20454;-71
2022/10/10 09:29:56;;;;;;;2.30;0.70;;;18.20;1.00;;;;;;5036900;28;20512;-71
2022/10/10 09:32:44;;;;;;;1.70;1.00;;;18.20;1.00;;;;;;5037396;28;20772;-71
2022/10/10 09:35:17;;;;;;;0.83;0.50;;;18.20;1.00;;;;;;5031402;28;20811;-71
2022/10/10 09:37:48;;;;;;;0.70;0.50;;;18.20;1.00;;;;;;5037599;28;20456;-71
2022/10/10 09:40:34;;;;;;;0.80;0.60;;;18.30;1.00;;;;;;5035409;28;20510;-72
2022/10/10 09:43:24;;;;;;;1.10;0.50;;;18.60;1.00;;;;;;5037698;28;20927;-72
2022/10/10 09:45:59;;;;;;;0.83;0.50;;;18.80;1.00;;;;;;5038180;28;20476;-72
2022/10/10 09:48:33;;;;;;;1.40;0.50;;;18.70;1.00;;;;;;5033363;28;20542;-72
2022/10/10 09:51:09;;;;;;;1.10;0.47;;;18.70;1.00;;;;;;5036824;28;20488;-72
2022/10/10 09:53:38;;;;;;;0.80;0.60;;;18.70;1.00;;;;;;5030888;28;20468;-72
2022/10/10 09:56:07;;;;;;;0.60;0.40;;;18.70;1.00;;;;;;5036888;28;20449;-72
2022/10/10 09:58:53;;;;;;;3.80;0.90;;;18.70;1.00;;;;;;5034610;28;20464;-72
2022/10/10 10:01:23;;;;;;;1.20;0.80;;;18.80;1.00;;;;;;5024712;28;20453;-73
2022/10/10 10:04:15;;;;;;;0.83;0.50;;;19.00;1.00;;;;;;5030773;28;20460;-71
2022/10/10 10:06:45;;;;;;;2.00;0.53;;;18.90;1.00;;;;;;5033355;28;20535;-72
2022/10/10 10:09:21;;;;;;;2.20;0.50;;;19.00;1.00;;;;;;5035850;28;20538;-71
2022/10/10 10:11:55;;;;;;;0.90;0.50;;;19.10;1.00;;;;;;5033480;28;20452;-70
2022/10/10 10:14:26;;;;;;;1.23;0.60;;;19.20;1.00;;;;;;5033783;28;20511;-71
2022/10/10 10:16:55;;;;;;;0.80;0.53;;;19.30;1.00;;;;;;5036515;28;20457;-71
2022/10/10 10:19:35;;;;;;;0.70;0.60;;;19.30;1.00;;;;;;5037794;28;20539;-71
2022/10/10 10:22:02;;;;;;;1.20;0.60;;;19.20;1.00;;;;;;5034233;28;20448;-71
2022/10/10 10:24:35;;;;;;;4.70;0.50;;;19.20;1.00;;;;;;5034015;28;20444;-71
2022/10/10 10:27:17;;;;;;;0.60;0.40;;;19.20;1.00;;;;;;5029858;28;20973;-71
2022/10/10 10:29:48;;;;;;;0.97;0.60;;;19.20;1.00;;;;;;5034688;28;20479;-70
2022/10/10 10:32:30;;;;;;;1.60;0.50;;;19.20;1.00;;;;;;5033815;28;20767;-71
2022/10/10 10:35:09;;;;;;;1.23;0.60;;;19.50;1.00;;;;;;5031472;28;20847;-70
2022/10/10 10:37:45;;;;;;;1.27;0.50;;;19.70;1.00;;;;;;5035388;28;20463;-70
2022/10/10 10:40:23;;;;;;;1.10;0.60;;;19.80;99.90;;;;;;5034917;28;20448;-70
2022/10/10 10:43:32;;;;;;;1.67;0.70;;;19.90;1.00;;;;;;5033367;28;20454;-70
2022/10/10 10:46:09;;;;;;;1.13;0.70;;;19.90;1.00;;;;;;5025276;28;20498;-71
2022/10/10 10:48:42;;;;;;;1.80;0.60;;;20.10;99.90;;;;;;5026416;28;20913;-71
2022/10/10 10:51:27;;;;;;;0.93;0.40;;;20.20;99.90;;;;;;5035070;28;20876;-72
2022/10/10 10:54:01;;;;;;;1.40;0.60;;;20.20;99.90;;;;;;5030031;28;20456;-71
2022/10/10 10:56:35;;;;;;;0.90;0.50;;;20.20;99.90;;;;;;5032135;28;20790;-71
2022/10/10 10:59:31;;;;;;;0.70;0.50;;;20.10;99.90;;;;;;5033834;28;20467;-72
2022/10/10 11:02:11;;;;;;;2.80;0.50;;;19.80;99.90;;;;;;5010403;28;20459;-72
2022/10/10 11:05:02;;;;;;;0.87;0.50;;;19.80;99.90;;;;;;5034583;28;20440;-72
2022/10/10 11:07:35;;;;;;;1.83;0.80;;;19.90;99.90;;;;;;5029363;28;20491;-73
2022/10/10 11:10:12;;;;;;;1.27;0.57;;;20.20;99.90;;;;;;5031674;28;20521;-72
2022/10/10 11:12:53;;;;;;;0.80;0.50;;;20.30;1.00;;;;;;5030772;28;20476;-74
2022/10/10 11:15:27;;;;;;;4.40;0.53;;;20.60;99.90;;;;;;5033891;28;20441;-73
2022/10/10 11:18:03;;;;;;;1.30;0.77;;;20.80;99.90;;;;;;5030797;28;20455;-72
2022/10/10 11:20:36;;;;;;;0.80;0.50;;;20.90;1.00;;;;;;5035115;28;20525;-72
2022/10/10 11:23:12;;;;;;;1.17;0.53;;;21.00;1.00;;;;;;5031155;28;20926;-73
2022/10/10 11:25:45;;;;;;;1.57;0.50;;;20.90;1.00;;;;;;5031809;28;20472;-72
2022/10/10 11:28:16;;;;;;;0.80;0.47;;;20.90;1.00;;;;;;5029054;28;20456;-72
2022/10/10 11:30:50;;;;;;;3.20;0.60;;;21.00;56.00;;;;;;5032451;28;20842;-73
2022/10/10 11:33:21;;;;;;;2.10;0.60;;;21.10;1.00;;;;;;5027557;28;20456;-73
2022/10/10 11:35:53;;;;;;;1.00;0.60;;;21.20;1.00;;;;;;5031964;28;20444;-72
2022/10/10 11:38:29;;;;;;;1.10;0.63;;;21.20;1.00;;;;;;5029535;28;20510;-71
2022/10/10 11:41:00;;;;;;;1.50;0.70;;;21.30;1.00;;;;;;5027076;28;20463;-73
2022/10/10 11:43:43;;;;;;;0.70;0.40;;;21.20;1.00;;;;;;5024249;28;20455;-73
2022/10/10 11:46:27;;;;;;;0.90;0.53;;;21.10;1.00;;;;;;5029913;28;20534;-73
2022/10/10 11:49:00;;;;;;;1.20;0.43;;;21.20;1.00;;;;;;5030359;28;20471;-73
2022/10/10 11:51:43;;;;;;;3.43;0.57;;;21.40;99.90;;;;;;5031433;28;20491;-73
2022/10/10 11:54:22;;;;;;;0.70;0.60;;;21.50;99.90;;;;;;5033725;28;20460;-73
2022/10/10 11:56:52;;;;;;;0.60;0.40;;;21.50;99.90;;;;;;5030291;28;20444;-72
2022/10/10 11:59:25;;;;;;;0.77;0.60;;;21.50;99.90;;;;;;5034375;28;20455;-72
2022/10/10 12:01:59;;;;;;;1.23;0.60;;;21.50;99.90;;;;;;5030790;28;20459;-71
2022/10/10 12:04:35;;;;;;;1.20;0.60;;;21.50;1.00;;;;;;5031167;28;20547;-72
2022/10/10 12:07:06;;;;;;;1.53;0.60;;;21.50;99.90;;;;;;5036329;28;20478;-73
2022/10/10 12:09:40;;;;;;;1.53;0.60;;;21.60;99.90;;;;;;5032867;28;21097;-71
2022/10/10 12:12:12;;;;;;;1.50;0.70;;;21.60;99.90;;;;;;5030549;28;20784;-71
2022/10/10 12:14:44;;;;;;;2.50;0.60;;;21.70;99.90;;;;;;5034572;28;20451;-72
2022/10/10 12:17:20;;;;;;;1.80;0.70;;;21.80;99.90;;;;;;5029914;28;20448;-71
2022/10/10 12:19:50;;;;;;;1.57;0.50;;;21.60;92.40;;;;;;5035102;28;20578;-72
2022/10/10 12:22:27;;;;;;;1.20;0.50;;;21.70;99.90;;;;;;5036709;28;20472;-72
2022/10/10 12:25:25;;;;;;;2.30;1.33;;;21.60;99.90;;;;;;5034043;28;20460;-72
2022/10/10 12:28:23;;;;;;;2.50;1.10;;;21.70;99.90;;;;;;5007505;28;20448;-72
2022/10/10 12:31:30;;;;;;;0.87;0.70;;;21.90;1.00;;;;;;5029929;28;20795;-71
2022/10/10 12:34:06;;;;;;;1.37;0.60;;;22.00;1.00;;;;;;4950400;29;20999;-72
2022/10/10 12:36:58;;;;;;;2.20;1.10;;;22.10;1.00;;;;;;4951003;29;20986;-72
2022/10/10 12:39:37;;;;;;;5.23;0.60;;;22.20;1.00;;;;;;5004401;28;20871;-72
2022/10/10 12:42:28;;;;;;;3.23;0.80;;;22.30;99.90;;;;;;5031707;28;20537;-72
2022/10/10 12:44:55;;;;;;;1.20;0.70;;;22.50;99.90;;;;;;5033801;28;20476;-72
2022/10/10 12:47:42;;;;;;;1.80;0.67;;;22.70;99.90;;;;;;5033105;28;20456;-72
2022/10/10 12:50:22;;;;;;;2.10;0.70;;;22.80;99.90;;;;;;5037690;28;20523;-71
2022/10/10 12:52:54;;;;;;;1.77;0.60;;;22.90;75.70;;;;;;5032993;28;20484;-71
2022/10/10 12:55:24;;;;;;;1.93;0.50;;;22.70;1.00;;;;;;5035884;28;20444;-72
2022/10/10 12:57:55;;;;;;;2.93;0.80;;;22.60;1.60;;;;;;5034277;28;20459;-71
2022/10/10 13:00:24;;;;;;;1.47;0.60;;;22.50;31.80;;;;;;5036688;28;20444;-71
2022/10/10 13:02:55;;;;;;;0.87;0.50;;;22.40;99.90;;;;;;5035170;28;20993;-72
2022/10/10 13:05:27;;;;;;;1.10;0.53;;;22.40;99.90;;;;;;5037268;28;20733;-71
2022/10/10 13:07:59;;;;;;;1.00;0.50;;;22.30;99.90;;;;;;5034457;28;20758;-71
2022/10/10 13:10:28;;;;;;;1.87;0.50;;;22.10;1.00;;;;;;5035874;28;20480;-71